Time;durP1;ratioP1;P1;durP2;ratioP2;P2;SDS_P1;SDS_P2;PMS_P1;PMS_P2;Temp;Humidity;BMP_temperature;BMP_pressure;BME280_temperature;BME280_humidity;BME280_pressure;Samples;Min_cycle;Max_cycle;Signal;HPM_P1;HPM_P2
2022/08/25 00:00:48;;;;;;;14.13;12.07;;;22.70;99.90;;;;;;5097338;28;20196;-95
2022/08/25 00:03:14;;;;;;;15.87;11.40;;;22.60;99.90;;;;;;5079906;28;20192;-95
2022/08/25 00:05:40;;;;;;;15.80;11.50;;;22.60;99.90;;;;;;5080076;28;20436;-92
2022/08/25 00:08:06;;;;;;;15.93;11.77;;;22.60;99.90;;;;;;5079301;28;20413;-92
2022/08/25 00:10:34;;;;;;;17.27;11.87;;;22.60;99.90;;;;;;5078882;28;20193;-93
2022/08/25 00:13:00;;;;;;;15.90;13.10;;;22.60;99.90;;;;;;5079683;28;20473;-93
2022/08/25 00:15:27;;;;;;;18.60;11.53;;;22.60;99.90;;;;;;5084950;28;20807;-93
2022/08/25 00:17:53;;;;;;;17.40;12.63;;;22.50;99.90;;;;;;5080327;28;20432;-96
2022/08/25 00:20:19;;;;;;;18.37;11.53;;;22.50;99.90;;;;;;5097478;28;20975;-92
2022/08/25 00:22:44;;;;;;;16.00;12.00;;;22.50;99.90;;;;;;5100483;28;20226;-92
2022/08/25 00:25:11;;;;;;;15.10;11.60;;;22.50;99.90;;;;;;5081016;28;20189;-96
2022/08/25 00:27:37;;;;;;;15.20;11.93;;;22.50;99.90;;;;;;5081516;28;20184;-96
2022/08/25 00:30:04;;;;;;;15.47;11.33;;;22.50;99.90;;;;;;5093032;28;20445;-95
2022/08/25 00:32:30;;;;;;;20.70;12.90;;;22.40;99.90;;;;;;5084055;28;20212;-92
2022/08/25 00:34:56;;;;;;;17.40;12.20;;;22.40;99.90;;;;;;5078847;28;20963;-94
2022/08/25 00:37:22;;;;;;;17.70;12.07;;;22.40;99.90;;;;;;5078832;28;20548;-93
2022/08/25 00:39:48;;;;;;;16.33;12.07;;;22.40;99.90;;;;;;5096638;28;20516;-96
2022/08/25 00:42:14;;;;;;;18.23;11.73;;;22.40;99.90;;;;;;5078816;28;20464;-96
2022/08/25 00:44:42;;;;;;;16.40;11.80;;;22.40;99.90;;;;;;5078395;28;20246;-96
2022/08/25 00:47:08;;;;;;;17.83;11.03;;;22.40;99.90;;;;;;5078530;28;20793;-96
2022/08/25 00:49:56;;;;;;;16.63;11.67;;;22.40;99.90;;;;;;5078257;28;20476;-93
2022/08/25 00:52:32;;;;;;;16.07;11.80;;;22.30;99.90;;;;;;5078332;28;20530;-95
2022/08/25 00:55:04;;;;;;;19.90;11.80;;;22.30;99.90;;;;;;5078453;28;20437;-96
2022/08/25 00:57:34;;;;;;;19.33;13.70;;;22.30;99.90;;;;;;5096488;28;20429;-96
2022/08/25 01:00:14;;;;;;;16.37;12.87;;;22.30;99.90;;;;;;5078444;28;20428;-92
2022/08/25 01:02:40;;;;;;;16.97;12.50;;;22.30;99.90;;;;;;5078420;28;20975;-96
2022/08/25 01:05:06;;;;;;;18.27;12.60;;;22.20;99.90;;;;;;5078438;28;20539;-92
2022/08/25 01:07:32;;;;;;;16.17;11.63;;;22.20;99.90;;;;;;5078193;28;20545;-96
2022/08/25 01:09:59;;;;;;;20.77;12.40;;;22.20;99.90;;;;;;5078221;28;20528;-95
2022/08/25 01:12:25;;;;;;;18.03;12.20;;;22.20;99.90;;;;;;5078258;28;20220;-96
2022/08/25 01:14:52;;;;;;;15.77;11.73;;;22.20;99.90;;;;;;5101458;28;20948;-92
2022/08/25 01:17:19;;;;;;;22.77;13.50;;;22.20;99.90;;;;;;5079142;28;20764;-96
2022/08/25 01:19:45;;;;;;;19.67;12.90;;;22.20;99.90;;;;;;5079560;28;20441;-92
2022/08/25 01:22:11;;;;;;;17.20;12.13;;;22.20;99.90;;;;;;5080174;28;20452;-95
2022/08/25 01:24:52;;;;;;;19.97;12.37;;;22.10;99.90;;;;;;5099281;28;20191;-93
2022/08/25 01:27:17;;;;;;;18.67;13.67;;;22.10;99.90;;;;;;5098744;28;20421;-92
2022/08/25 01:29:43;;;;;;;18.47;13.37;;;22.10;99.90;;;;;;5083336;28;20968;-96
2022/08/25 01:32:12;;;;;;;26.17;14.70;;;22.10;99.90;;;;;;5081190;28;20208;-96
2022/08/25 01:34:41;;;;;;;23.23;15.97;;;22.10;99.90;;;;;;5098150;28;20212;-92
2022/08/25 01:37:08;;;;;;;19.47;13.60;;;22.10;99.90;;;;;;5080648;28;20937;-93
2022/08/25 01:39:37;;;;;;;20.50;13.67;;;22.10;99.90;;;;;;5083376;28;20448;-93
2022/08/25 01:42:05;;;;;;;19.33;14.33;;;22.10;99.90;;;;;;5086500;28;20421;-92
2022/08/25 01:44:34;;;;;;;19.93;14.40;;;22.10;99.90;;;;;;5081771;28;20437;-95
2022/08/25 01:47:00;;;;;;;21.80;14.70;;;22.10;99.90;;;;;;5077240;28;20425;-93
2022/08/25 01:49:26;;;;;;;17.83;13.00;;;22.10;99.90;;;;;;5095028;28;20460;-96
2022/08/25 01:52:17;;;;;;;19.20;14.23;;;22.10;99.90;;;;;;5095143;28;20437;-92
2022/08/25 01:54:43;;;;;;;18.10;13.17;;;22.10;99.90;;;;;;5077415;28;20200;-92
2022/08/25 01:57:09;;;;;;;16.93;12.87;;;22.00;99.90;;;;;;5077299;28;20416;-92
2022/08/25 01:59:35;;;;;;;21.60;13.90;;;22.00;99.90;;;;;;5078133;28;20945;-93
2022/08/25 02:02:01;;;;;;;20.83;13.90;;;22.00;99.90;;;;;;5082146;28;20541;-92
2022/08/25 02:04:30;;;;;;;20.53;13.13;;;22.00;99.90;;;;;;5101923;28;20272;-95
2022/08/25 02:06:57;;;;;;;20.40;14.43;;;22.00;99.90;;;;;;5097955;28;20662;-96
2022/08/25 02:09:23;;;;;;;20.63;14.40;;;22.00;99.90;;;;;;5095354;28;20416;-95
2022/08/25 02:11:49;;;;;;;22.17;15.60;;;22.00;99.90;;;;;;5079308;28;20539;-92
2022/08/25 02:14:17;;;;;;;21.30;13.93;;;21.90;99.90;;;;;;5098915;28;20208;-94
2022/08/25 02:16:47;;;;;;;22.43;14.30;;;22.00;99.90;;;;;;5099764;28;20456;-92
2022/08/25 02:19:13;;;;;;;18.30;13.80;;;22.00;99.90;;;;;;5102085;28;20429;-92
2022/08/25 02:21:39;;;;;;;20.53;14.40;;;22.00;99.90;;;;;;5106589;28;20429;-93
2022/08/25 02:24:05;;;;;;;21.50;14.47;;;21.90;99.90;;;;;;5081640;28;20416;-92
2022/08/25 02:26:31;;;;;;;21.40;15.00;;;21.90;99.90;;;;;;5076996;28;20409;-92
2022/08/25 02:28:57;;;;;;;20.93;14.40;;;21.90;99.90;;;;;;5076794;28;20794;-92
2022/08/25 02:31:24;;;;;;;23.07;16.70;;;21.90;99.90;;;;;;5077027;28;20478;-92
2022/08/25 02:33:51;;;;;;;21.63;15.67;;;21.90;99.90;;;;;;5099126;28;20464;-93
2022/08/25 02:36:17;;;;;;;22.10;15.10;;;21.90;99.90;;;;;;5080981;28;20420;-92
2022/08/25 02:38:43;;;;;;;24.20;15.50;;;21.90;99.90;;;;;;5098939;28;20421;-96
2022/08/25 02:41:15;;;;;;;27.60;17.53;;;21.80;99.90;;;;;;5098793;28;20420;-92
2022/08/25 02:43:42;;;;;;;24.10;16.07;;;21.80;99.90;;;;;;5081189;28;20234;-92
2022/08/25 02:46:10;;;;;;;25.07;15.97;;;21.80;99.90;;;;;;5098713;28;20481;-95
2022/08/25 02:48:36;;;;;;;22.97;15.00;;;21.80;99.90;;;;;;5081335;28;20421;-93
2022/08/25 02:51:02;;;;;;;27.73;16.30;;;21.80;99.90;;;;;;5077748;28;20476;-93
2022/08/25 02:53:29;;;;;;;28.30;17.83;;;21.80;99.90;;;;;;5080689;28;20958;-96
2022/08/25 02:55:55;;;;;;;24.93;17.13;;;21.80;99.90;;;;;;5087927;28;20452;-92
2022/08/25 02:58:21;;;;;;;24.57;15.87;;;21.80;99.90;;;;;;5080047;28;20418;-96
2022/08/25 03:00:48;;;;;;;31.00;18.43;;;21.80;99.90;;;;;;5079421;28;20425;-96
2022/08/25 03:03:14;;;;;;;27.77;17.20;;;21.80;99.90;;;;;;5078984;28;20429;-92
2022/08/25 03:05:40;;;;;;;26.20;17.13;;;21.80;99.90;;;;;;5080034;28;20429;-96
2022/08/25 03:08:07;;;;;;;26.77;17.23;;;21.80;99.90;;;;;;5084170;28;20475;-94
2022/08/25 03:10:33;;;;;;;24.97;16.07;;;21.80;99.90;;;;;;5077675;28;20197;-96
2022/08/25 03:12:59;;;;;;;29.20;17.47;;;21.80;99.90;;;;;;5078969;28;20826;-92
2022/08/25 03:15:26;;;;;;;27.93;18.00;;;21.80;99.90;;;;;;5077359;28;20434;-95
2022/08/25 03:17:53;;;;;;;24.90;16.90;;;21.80;99.90;;;;;;5077851;28;20272;-94
2022/08/25 03:20:21;;;;;;;28.80;18.57;;;21.80;99.90;;;;;;5077401;28;20969;-96
2022/08/25 03:22:47;;;;;;;29.10;17.57;;;21.80;99.90;;;;;;5077661;28;20516;-96
2022/08/25 03:27:58;;;;;;;26.67;17.03;;;21.80;99.90;;;;;;5078385;28;20937;-92
2022/08/25 03:30:26;;;;;;;26.37;17.53;;;21.80;99.90;;;;;;5077828;28;20457;-96
2022/08/25 03:32:51;;;;;;;24.83;18.57;;;21.80;99.90;;;;;;5078276;28;20472;-92
2022/08/25 03:35:17;;;;;;;24.80;15.43;;;21.80;99.90;;;;;;5077713;28;20806;-91
2022/08/25 03:37:43;;;;;;;23.80;16.60;;;21.80;99.90;;;;;;5078516;28;20209;-92
2022/08/25 03:40:11;;;;;;;27.40;15.93;;;21.80;99.90;;;;;;5077165;28;21004;-92
2022/08/25 03:42:41;;;;;;;26.27;16.33;;;21.80;99.90;;;;;;5077489;28;20181;-96
2022/08/25 03:45:10;;;;;;;26.67;16.43;;;21.80;99.90;;;;;;5077243;28;20457;-96
2022/08/25 03:47:37;;;;;;;24.70;16.17;;;21.80;99.90;;;;;;5078660;28;20910;-95
2022/08/25 03:50:04;;;;;;;27.60;17.07;;;21.70;99.90;;;;;;5073748;28;20474;-96
2022/08/25 03:52:30;;;;;;;25.43;15.17;;;21.70;99.90;;;;;;5067863;28;20503;-96
2022/08/25 03:54:56;;;;;;;26.33;17.80;;;21.70;99.90;;;;;;5065263;28;20499;-93
2022/08/25 03:57:21;;;;;;;25.40;16.50;;;21.70;99.90;;;;;;5066864;28;20186;-92
2022/08/25 03:59:47;;;;;;;26.23;16.27;;;21.70;99.90;;;;;;5047146;28;20198;-95
2022/08/25 04:02:13;;;;;;;25.30;16.97;;;21.70;99.90;;;;;;5056717;28;20666;-96
2022/08/25 04:04:39;;;;;;;22.97;16.03;;;21.70;99.90;;;;;;5049058;28;20198;-95
2022/08/25 04:07:05;;;;;;;27.00;18.33;;;21.70;99.90;;;;;;5057923;28;20486;-92
2022/08/25 04:09:31;;;;;;;24.07;15.50;;;21.70;99.90;;;;;;5056881;28;20955;-95
2022/08/25 04:11:56;;;;;;;23.27;16.50;;;21.70;99.90;;;;;;5056968;28;20630;-96
2022/08/25 04:14:22;;;;;;;31.50;17.73;;;21.70;99.90;;;;;;5055089;28;20208;-92
2022/08/25 04:16:48;;;;;;;25.90;17.57;;;21.70;99.90;;;;;;5056414;28;20182;-92
2022/08/25 04:19:14;;;;;;;26.43;17.47;;;21.70;99.90;;;;;;5056326;28;20201;-92
2022/08/25 04:21:40;;;;;;;25.73;17.53;;;21.70;99.90;;;;;;5053516;28;20182;-95
2022/08/25 04:24:09;;;;;;;26.40;17.57;;;21.70;99.90;;;;;;5052548;28;20651;-93
2022/08/25 04:26:38;;;;;;;31.00;18.03;;;21.70;99.90;;;;;;5052120;28;20423;-96
2022/08/25 04:29:05;;;;;;;26.80;17.70;;;21.70;99.90;;;;;;5044766;28;20424;-96
2022/08/25 04:31:32;;;;;;;28.37;18.60;;;21.70;99.90;;;;;;5055898;28;20936;-95
2022/08/25 04:34:01;;;;;;;29.07;18.00;;;21.70;99.90;;;;;;5058892;28;20506;-92
2022/08/25 04:36:27;;;;;;;28.37;17.50;;;21.70;99.90;;;;;;5057457;28;20407;-95
2022/08/25 04:38:53;;;;;;;26.70;18.33;;;21.70;99.90;;;;;;5055836;28;20997;-92
2022/08/25 04:41:21;;;;;;;25.57;18.40;;;21.70;99.90;;;;;;5058331;28;20403;-94
2022/08/25 04:43:47;;;;;;;26.23;17.20;;;21.70;99.90;;;;;;5063705;28;20205;-96
2022/08/25 04:46:18;;;;;;;30.07;19.30;;;21.70;99.90;;;;;;5056460;28;20431;-95
2022/08/25 04:48:44;;;;;;;28.20;18.87;;;21.70;99.90;;;;;;5056015;28;20521;-93
2022/08/25 04:51:13;;;;;;;28.40;18.00;;;21.70;99.90;;;;;;5057104;28;20469;-96
2022/08/25 04:53:40;;;;;;;30.30;18.23;;;21.80;99.90;;;;;;5055769;28;20224;-95
2022/08/25 04:56:08;;;;;;;24.50;17.17;;;21.80;99.90;;;;;;5054981;28;20431;-92
2022/08/25 04:58:35;;;;;;;27.17;17.07;;;21.80;99.90;;;;;;5056602;28;20548;-96
2022/08/25 05:01:09;;;;;;;25.50;17.53;;;21.80;99.90;;;;;;5056974;28;20439;-92
2022/08/25 05:03:35;;;;;;;24.57;17.47;;;21.80;99.90;;;;;;5057537;28;20463;-92
2022/08/25 05:06:02;;;;;;;23.23;16.83;;;21.80;99.90;;;;;;5056504;28;20446;-95
2022/08/25 05:08:28;;;;;;;33.47;19.83;;;21.80;99.90;;;;;;5055660;28;21017;-92
2022/08/25 05:10:55;;;;;;;29.27;19.10;;;21.90;99.90;;;;;;5055540;28;20951;-92
2022/08/25 05:13:22;;;;;;;25.00;17.40;;;21.90;99.90;;;;;;5055453;28;20471;-91
2022/08/25 05:15:57;;;;;;;25.60;17.07;;;21.90;99.90;;;;;;5054077;28;20991;-95
2022/08/25 05:18:25;;;;;;;25.67;17.70;;;22.00;99.90;;;;;;5052988;28;20426;-92
2022/08/25 05:20:52;;;;;;;28.17;17.33;;;22.00;99.90;;;;;;5055246;28;20433;-94
2022/08/25 05:23:19;;;;;;;26.83;18.97;;;22.00;99.90;;;;;;5054795;28;20425;-92
2022/08/25 05:25:45;;;;;;;29.10;19.43;;;22.10;99.90;;;;;;5046536;28;20444;-92
2022/08/25 05:28:11;;;;;;;25.87;17.83;;;22.10;99.90;;;;;;5033478;28;21053;-92
2022/08/25 05:30:40;;;;;;;34.37;20.13;;;22.20;99.90;;;;;;5033324;28;20422;-95
2022/08/25 05:33:06;;;;;;;31.10;21.53;;;22.20;99.90;;;;;;5041134;28;20472;-93
2022/08/25 05:35:32;;;;;;;26.50;19.00;;;22.20;99.90;;;;;;5052387;28;20440;-95
2022/08/25 05:37:57;;;;;;;28.20;18.70;;;22.30;99.90;;;;;;5051431;28;20803;-91
2022/08/25 05:40:23;;;;;;;29.70;18.47;;;22.30;99.90;;;;;;5056778;28;20692;-95
2022/08/25 05:42:50;;;;;;;25.83;18.80;;;22.40;99.90;;;;;;5056227;28;20209;-93
2022/08/25 05:45:16;;;;;;;23.70;17.80;;;22.40;99.90;;;;;;5056124;28;20439;-92
2022/08/25 05:47:43;;;;;;;30.87;18.70;;;22.50;99.90;;;;;;5055794;28;20427;-94
2022/08/25 05:50:09;;;;;;;31.33;19.10;;;22.50;99.90;;;;;;5066306;28;20477;-93
2022/08/25 05:52:35;;;;;;;24.97;17.23;;;22.60;99.90;;;;;;5073041;28;20463;-96
2022/08/25 05:55:02;;;;;;;26.03;18.70;;;22.70;99.90;;;;;;5079862;28;20435;-95
2022/08/25 05:57:28;;;;;;;27.20;20.20;;;22.70;99.90;;;;;;5079629;28;20507;-95
2022/08/25 05:59:53;;;;;;;30.40;18.47;;;22.80;99.90;;;;;;5075653;28;20470;-95
2022/08/25 06:02:42;;;;;;;24.80;18.27;;;22.90;99.90;;;;;;5074135;28;20190;-96
2022/08/25 06:05:16;;;;;;;28.87;18.03;;;22.90;99.90;;;;;;5074182;28;20198;-93
2022/08/25 06:07:43;;;;;;;23.13;17.90;;;23.00;99.90;;;;;;5072905;28;20426;-93
2022/08/25 06:10:10;;;;;;;28.17;17.57;;;23.00;99.90;;;;;;5066571;28;20440;-96
2022/08/25 06:12:36;;;;;;;22.97;16.90;;;23.10;99.90;;;;;;5073220;28;20843;-95
2022/08/25 06:15:03;;;;;;;25.93;18.17;;;23.10;99.90;;;;;;5073527;28;20485;-96
2022/08/25 06:17:28;;;;;;;26.57;18.33;;;23.20;99.90;;;;;;5076813;28;20424;-93
2022/08/25 06:19:54;;;;;;;27.83;16.50;;;23.30;99.90;;;;;;5074715;28;20447;-93
2022/08/25 06:22:21;;;;;;;26.00;17.87;;;23.30;99.90;;;;;;5068840;28;20184;-93
2022/08/25 06:24:47;;;;;;;29.50;18.17;;;23.40;99.90;;;;;;5062733;28;20265;-93
2022/08/25 06:27:13;;;;;;;27.37;17.77;;;23.50;99.90;;;;;;5065331;28;20438;-94
2022/08/25 06:29:38;;;;;;;811.77;498.17;;;23.50;99.90;;;;;;5074448;28;20562;-94
2022/08/25 06:32:05;;;;;;;118.97;77.00;;;23.60;99.90;;;;;;5076390;28;20429;-93
2022/08/25 06:34:30;;;;;;;472.70;281.50;;;23.60;99.90;;;;;;5068752;28;20209;-94
2022/08/25 06:36:56;;;;;;;134.00;79.97;;;23.70;99.90;;;;;;5069740;28;20435;-91
2022/08/25 06:39:23;;;;;;;36.67;27.20;;;23.70;99.90;;;;;;5071149;28;20250;-94
2022/08/25 06:41:56;;;;;;;29.17;18.80;;;23.80;99.90;;;;;;5079843;28;20186;-94
2022/08/25 06:44:23;;;;;;;22.70;17.33;;;23.90;99.90;;;;;;5080825;28;20460;-91
2022/08/25 06:46:49;;;;;;;25.50;15.93;;;24.00;99.90;;;;;;5066806;28;20439;-90
2022/08/25 06:49:15;;;;;;;24.07;14.93;;;24.00;99.90;;;;;;5071950;28;20479;-90
2022/08/25 06:51:41;;;;;;;21.10;15.57;;;24.10;99.90;;;;;;5078102;28;20480;-94
2022/08/25 06:54:09;;;;;;;24.73;15.70;;;24.10;99.90;;;;;;5082400;28;20502;-93
2022/08/25 06:56:35;;;;;;;24.60;16.07;;;24.20;99.90;;;;;;5082276;28;20481;-93
2022/08/25 06:59:06;;;;;;;21.37;15.30;;;24.30;99.90;;;;;;5083883;28;20468;-94
2022/08/25 07:01:33;;;;;;;22.40;14.73;;;24.30;99.90;;;;;;5063979;28;20426;-94
2022/08/25 07:04:01;;;;;;;20.93;15.10;;;24.40;99.90;;;;;;5065921;28;20432;-90
2022/08/25 07:06:30;;;;;;;18.43;14.00;;;24.50;99.90;;;;;;5071095;28;20417;-91
2022/08/25 07:08:56;;;;;;;16.50;13.30;;;24.60;99.90;;;;;;5072214;28;20440;-91
2022/08/25 07:11:23;;;;;;;19.63;14.30;;;24.60;99.90;;;;;;5069529;28;20942;-91
2022/08/25 07:13:49;;;;;;;19.07;14.50;;;24.70;99.90;;;;;;5073050;28;20481;-94
2022/08/25 07:16:19;;;;;;;18.80;12.67;;;24.80;99.90;;;;;;5055547;28;20458;-95
2022/08/25 07:18:46;;;;;;;20.40;14.40;;;24.80;99.90;;;;;;5073720;28;20520;-91
2022/08/25 07:21:13;;;;;;;16.87;12.30;;;24.90;99.90;;;;;;5057010;28;20449;-91
2022/08/25 07:23:40;;;;;;;17.30;13.13;;;25.00;99.90;;;;;;5074477;28;20426;-94
2022/08/25 07:26:24;;;;;;;20.80;11.60;;;25.00;99.90;;;;;;5079129;28;20902;-95
2022/08/25 07:28:50;;;;;;;16.53;12.53;;;25.10;99.90;;;;;;5074332;28;20453;-94
2022/08/25 07:31:16;;;;;;;20.30;11.90;;;25.20;99.90;;;;;;5074206;28;20801;-90
2022/08/25 07:35:14;;;;;;;20.67;12.73;;;25.20;99.90;;;;;;5070372;28;20469;-90
2022/08/25 07:36:30;;;;;;;15.97;11.17;;;25.30;99.90;;;;;;5075929;28;20263;-90
2022/08/25 07:38:56;;;;;;;13.90;10.67;;;25.30;99.90;;;;;;5073343;28;20568;-90
2022/08/25 07:41:22;;;;;;;13.50;10.77;;;25.40;99.90;;;;;;5069270;28;20836;-94
2022/08/25 07:43:47;;;;;;;368.73;227.70;;;25.50;99.90;;;;;;5072943;28;20429;-92
2022/08/25 07:46:13;;;;;;;30.90;23.00;;;25.60;99.90;;;;;;5066656;28;20209;-91
2022/08/25 07:48:39;;;;;;;34.20;23.90;;;25.60;99.90;;;;;;5072683;28;20210;-90
2022/08/25 07:51:13;;;;;;;27.67;19.33;;;25.70;99.90;;;;;;5074626;28;20535;-91
2022/08/25 07:53:39;;;;;;;21.10;11.83;;;25.80;99.90;;;;;;5079229;28;20213;-95
2022/08/25 07:56:13;;;;;;;12.93;10.53;;;25.80;99.90;;;;;;5066712;28;20457;-91
2022/08/25 07:58:40;;;;;;;14.90;11.03;;;25.90;99.90;;;;;;5072548;28;20942;-95
2022/08/25 08:01:11;;;;;;;13.17;10.17;;;26.00;99.90;;;;;;5071857;28;20468;-91
2022/08/25 08:03:37;;;;;;;13.80;9.47;;;26.00;99.90;;;;;;5078699;28;20503;-95
2022/08/25 08:06:08;;;;;;;12.90;9.13;;;26.10;99.90;;;;;;5073537;28;20493;-92
2022/08/25 08:08:43;;;;;;;11.50;8.70;;;26.20;99.90;;;;;;5086009;28;20248;-91
2022/08/25 08:11:15;;;;;;;12.30;8.77;;;26.20;99.90;;;;;;5074844;28;20444;-94
2022/08/25 08:13:41;;;;;;;12.10;9.20;;;26.30;99.90;;;;;;5073890;28;20469;-90
2022/08/25 08:16:11;;;;;;;16.37;9.07;;;26.40;99.90;;;;;;5068335;28;20469;-94
2022/08/25 08:18:37;;;;;;;11.50;8.40;;;26.40;99.90;;;;;;5073194;28;20185;-90
2022/08/25 08:21:03;;;;;;;9.07;7.77;;;26.50;99.90;;;;;;5071246;28;20461;-90
2022/08/25 08:23:29;;;;;;;11.20;7.87;;;26.60;99.90;;;;;;5074510;28;20475;-91
2022/08/25 08:25:55;;;;;;;10.90;7.77;;;26.60;99.90;;;;;;5082313;28;20485;-90
2022/08/25 08:28:22;;;;;;;10.90;8.23;;;26.70;99.90;;;;;;5079685;28;20205;-95
2022/08/25 08:30:48;;;;;;;9.67;7.90;;;26.80;99.90;;;;;;5080053;28;20456;-93
2022/08/25 08:33:14;;;;;;;9.83;7.40;;;26.90;99.90;;;;;;5081078;28;20481;-95
2022/08/25 08:35:40;;;;;;;10.73;8.00;;;26.90;99.90;;;;;;5072160;28;20227;-91
2022/08/25 08:38:06;;;;;;;9.60;7.73;;;27.00;99.90;;;;;;5071801;28;20185;-91
2022/08/25 08:40:40;;;;;;;8.13;6.30;;;27.10;99.90;;;;;;5072894;28;20543;-96
2022/08/25 08:43:14;;;;;;;8.60;6.23;;;27.20;99.90;;;;;;5075721;28;20434;-91
2022/08/25 08:45:49;;;;;;;9.27;5.93;;;27.30;99.90;;;;;;5072297;28;20801;-91
2022/08/25 08:48:36;;;;;;;7.10;5.73;;;27.30;99.90;;;;;;5073376;28;20508;-95
2022/08/25 08:51:24;;;;;;;8.73;5.63;;;27.40;99.90;;;;;;5088050;28;20497;-95
2022/08/25 08:54:01;;;;;;;5.83;5.20;;;27.50;99.90;;;;;;5072571;28;20540;-91
2022/08/25 08:56:44;;;;;;;6.30;4.80;;;27.80;99.90;;;;;;5069510;28;20443;-92
2022/08/25 08:59:18;;;;;;;5.77;4.90;;;28.10;99.90;;;;;;5075611;28;20426;-92
2022/08/25 09:01:58;;;;;;;6.20;5.57;;;28.30;99.90;;;;;;5076186;28;20520;-92
2022/08/25 09:05:03;;;;;;;9.70;5.97;;;28.50;99.90;;;;;;5076745;28;20470;-95
2022/08/25 09:07:36;;;;;;;6.47;4.87;;;28.60;99.90;;;;;;5039681;28;20961;-96
2022/08/25 09:10:06;;;;;;;5.57;4.90;;;28.60;99.90;;;;;;5063661;28;20436;-91
2022/08/25 09:12:40;;;;;;;6.37;4.87;;;28.60;99.90;;;;;;5067907;28;20556;-96
2022/08/25 09:16:53;;;;;;;5.60;5.10;;;28.50;99.90;;;;;;5066437;28;20463;-95
2022/08/25 09:18:36;;;;;;;7.70;5.57;;;28.60;99.90;;;;;;5070557;28;20450;-93
2022/08/25 09:21:10;;;;;;;6.83;4.90;;;28.50;99.90;;;;;;5065830;28;20819;-92
2022/08/25 09:24:04;;;;;;;6.80;5.57;;;28.50;99.90;;;;;;5073391;28;20615;-92
2022/08/25 09:26:49;;;;;;;8.67;6.07;;;28.50;99.90;;;;;;5074543;28;20424;-91
2022/08/25 09:29:22;;;;;;;8.93;6.37;;;28.50;99.90;;;;;;5069560;28;20548;-95
2022/08/25 09:31:48;;;;;;;5.93;5.33;;;28.50;99.90;;;;;;5074437;28;20479;-95
2022/08/25 09:34:20;;;;;;;6.73;4.87;;;28.50;99.90;;;;;;5087790;28;20480;-95
2022/08/25 09:36:51;;;;;;;8.03;5.70;;;28.50;99.90;;;;;;5071198;28;20456;-95
2022/08/25 09:39:18;;;;;;;7.57;4.93;;;28.60;99.90;;;;;;5061487;28;20817;-95
2022/08/25 09:41:56;;;;;;;6.60;4.80;;;28.60;99.90;;;;;;5068075;28;20957;-91
2022/08/25 09:44:42;;;;;;;7.30;5.20;;;28.50;99.90;;;;;;5071043;28;20520;-95
2022/08/25 09:47:17;;;;;;;6.60;4.90;;;28.60;99.90;;;;;;5063164;28;20441;-96
2022/08/25 09:49:56;;;;;;;5.10;4.20;;;28.60;99.90;;;;;;5070260;28;20499;-91
2022/08/25 09:52:32;;;;;;;5.37;4.83;;;28.60;99.90;;;;;;5062788;28;20441;-96
2022/08/25 09:55:15;;;;;;;5.47;4.77;;;28.60;99.90;;;;;;5083620;28;20562;-91
2022/08/25 09:57:48;;;;;;;6.60;4.50;;;28.70;99.90;;;;;;5080724;28;20439;-96
2022/08/25 10:00:32;;;;;;;6.40;5.10;;;28.70;99.90;;;;;;5070830;28;20456;-95
2022/08/25 10:03:06;;;;;;;6.77;4.60;;;28.70;99.90;;;;;;5077573;28;20468;-91
2022/08/25 10:05:37;;;;;;;6.57;5.30;;;28.70;99.90;;;;;;5073415;28;20465;-94
2022/08/25 10:08:12;;;;;;;8.23;5.20;;;28.80;99.90;;;;;;5071774;28;20973;-95
2022/08/25 10:10:44;;;;;;;4.90;4.40;;;28.70;99.90;;;;;;5073409;28;20444;-92
2022/08/25 10:13:18;;;;;;;8.03;5.27;;;28.70;99.90;;;;;;5075210;28;20567;-92
2022/08/25 10:15:44;;;;;;;6.30;5.43;;;28.70;99.90;;;;;;5091155;28;20519;-91
2022/08/25 10:18:24;;;;;;;6.40;5.40;;;28.80;99.90;;;;;;5092843;28;20431;-95
2022/08/25 10:21:09;;;;;;;9.30;4.80;;;28.80;99.90;;;;;;5107435;28;20453;-92
2022/08/25 10:23:39;;;;;;;5.00;4.50;;;28.90;99.90;;;;;;5089385;28;20866;-91
2022/08/25 10:26:28;;;;;;;6.47;4.77;;;28.90;99.90;;;;;;5105966;28;20722;-92
2022/08/25 10:29:10;;;;;;;10.23;5.47;;;28.90;99.90;;;;;;5077223;28;20580;-95
2022/08/25 10:31:55;;;;;;;9.50;5.00;;;28.90;99.90;;;;;;5069423;28;20418;-95
2022/08/25 10:34:46;;;;;;;5.03;4.53;;;28.90;99.90;;;;;;5067624;28;20472;-92
2022/08/25 10:37:12;;;;;;;6.87;4.57;;;29.00;99.90;;;;;;5077520;28;20427;-96
2022/08/25 10:39:41;;;;;;;6.30;5.70;;;28.90;99.90;;;;;;5065584;28;20806;-91
2022/08/25 10:42:25;;;;;;;6.27;4.37;;;29.00;99.90;;;;;;5065458;28;20184;-96
2022/08/25 10:45:43;;;;;;;6.77;4.20;;;29.00;99.90;;;;;;5065333;28;20441;-91
2022/08/25 10:48:26;;;;;;;6.60;4.63;;;29.00;99.90;;;;;;5067246;28;20784;-91
2022/08/25 10:51:06;;;;;;;5.00;4.50;;;29.00;99.90;;;;;;5086031;28;20474;-91
2022/08/25 10:54:04;;;;;;;6.67;4.63;;;29.10;99.90;;;;;;5074024;28;20833;-95
2022/08/25 10:56:40;;;;;;;5.00;4.17;;;29.10;99.90;;;;;;5096006;28;20948;-95
2022/08/25 10:59:21;;;;;;;5.77;4.27;;;29.20;99.90;;;;;;5098166;28;20493;-95
2022/08/25 11:02:00;;;;;;;5.57;4.37;;;29.20;99.90;;;;;;5077996;28;20454;-92
2022/08/25 11:04:55;;;;;;;7.67;4.90;;;29.20;99.90;;;;;;5078307;28;20463;-96
2022/08/25 11:07:34;;;;;;;7.37;4.03;;;29.20;99.90;;;;;;5059087;28;20448;-92
2022/08/25 11:10:10;;;;;;;7.20;4.37;;;29.20;99.90;;;;;;5091304;28;20443;-96
2022/08/25 11:12:43;;;;;;;7.40;4.77;;;29.20;99.90;;;;;;5077989;28;20552;-91
2022/08/25 11:15:17;;;;;;;6.70;4.77;;;29.20;99.90;;;;;;5077274;28;20484;-95
2022/08/25 11:17:55;;;;;;;5.37;4.30;;;29.30;99.90;;;;;;5080752;28;20956;-94
2022/08/25 11:20:27;;;;;;;7.63;4.37;;;29.30;99.90;;;;;;5094835;28;20500;-91
2022/08/25 11:23:44;;;;;;;5.17;4.40;;;29.30;99.90;;;;;;5082780;28;20434;-96
2022/08/25 11:26:15;;;;;;;5.03;4.10;;;29.40;99.90;;;;;;4997415;28;20552;-91
2022/08/25 11:29:04;;;;;;;6.70;4.47;;;29.30;99.90;;;;;;5062350;28;20468;-94
2022/08/25 11:31:38;;;;;;;6.93;4.47;;;29.30;99.90;;;;;;5079535;28;20499;-91
2022/08/25 11:34:06;;;;;;;5.03;4.53;;;29.20;99.90;;;;;;5078506;28;20473;-93
2022/08/25 11:36:35;;;;;;;5.90;4.30;;;29.20;99.90;;;;;;5078006;28;20523;-96
2022/08/25 11:39:14;;;;;;;6.73;5.07;;;29.30;99.90;;;;;;5079414;28;20523;-91
2022/08/25 11:42:18;;;;;;;5.80;4.30;;;29.30;99.90;;;;;;5079081;28;20436;-91
2022/08/25 11:44:51;;;;;;;8.30;5.20;;;29.40;99.90;;;;;;5097035;28;20463;-96
2022/08/25 11:47:30;;;;;;;12.00;4.90;;;29.50;99.90;;;;;;5083306;28;20440;-90
2022/08/25 11:50:07;;;;;;;9.40;5.10;;;29.40;99.90;;;;;;5088374;28;20511;-91
2022/08/25 11:52:33;;;;;;;6.03;4.90;;;29.50;99.90;;;;;;5087170;28;20482;-95
2022/08/25 11:55:42;;;;;;;6.07;4.97;;;29.50;99.90;;;;;;5082413;28;20541;-92
2022/08/25 11:58:26;;;;;;;7.83;4.63;;;29.60;99.90;;;;;;5036445;28;20338;-94
2022/08/25 12:00:59;;;;;;;7.53;4.20;;;29.60;99.90;;;;;;5085961;28;20477;-94
2022/08/25 12:03:31;;;;;;;6.10;5.10;;;29.70;99.90;;;;;;5066486;28;20523;-94
2022/08/25 12:06:29;;;;;;;9.43;4.40;;;29.60;99.90;;;;;;5091533;28;20450;-95
2022/08/25 12:09:04;;;;;;;6.80;4.77;;;29.60;99.90;;;;;;5076757;28;20471;-95
2022/08/25 12:11:55;;;;;;;6.20;4.67;;;29.60;99.90;;;;;;5066350;28;20444;-90
2022/08/25 12:14:20;;;;;;;5.40;4.00;;;29.60;99.90;;;;;;5085894;28;20491;-91
2022/08/25 12:16:55;;;;;;;6.03;4.60;;;29.60;99.90;;;;;;5082989;28;20456;-91
2022/08/25 12:19:30;;;;;;;8.00;4.20;;;29.50;99.90;;;;;;5079305;28;20203;-91
2022/08/25 12:22:02;;;;;;;6.10;5.50;;;29.50;99.90;;;;;;5072649;28;20534;-95
2022/08/25 12:24:43;;;;;;;5.87;4.80;;;29.50;99.90;;;;;;5080070;28;20449;-96
2022/08/25 12:27:26;;;;;;;6.40;3.93;;;29.50;99.90;;;;;;5073945;28;20436;-91
2022/08/25 12:30:20;;;;;;;4.47;4.07;;;29.50;99.90;;;;;;5094877;28;20462;-90
2022/08/25 12:33:04;;;;;;;4.87;4.47;;;29.50;99.90;;;;;;5077748;28;20467;-94
2022/08/25 12:35:49;;;;;;;9.83;5.10;;;29.50;99.90;;;;;;5070173;28;20600;-91
2022/08/25 12:38:25;;;;;;;5.23;4.07;;;29.50;99.90;;;;;;5087872;28;20443;-91
2022/08/25 12:41:07;;;;;;;6.70;4.47;;;29.60;99.90;;;;;;5085559;28;20943;-92
2022/08/25 12:43:36;;;;;;;5.10;4.60;;;29.60;99.90;;;;;;5081912;28;20487;-95
2022/08/25 12:46:20;;;;;;;5.17;4.63;;;29.60;99.90;;;;;;5093845;28;20452;-96
2022/08/25 12:48:57;;;;;;;6.33;3.80;;;29.60;99.90;;;;;;5065376;28;20507;-94
2022/08/25 12:51:26;;;;;;;5.67;4.47;;;29.50;99.90;;;;;;5081849;28;20447;-91
2022/08/25 12:54:00;;;;;;;12.53;5.30;;;29.70;99.90;;;;;;5093905;28;20497;-94
2022/08/25 12:56:33;;;;;;;5.97;4.40;;;29.70;99.90;;;;;;5076852;28;20491;-91